Aviador C. Campos Airport

Jump to: basic info | weather | frequencies | runways | comments

Related pages: nearby airports | nearby navaids | notams | map

Basic information (top)

Codes: CPC SAZY CHP
Location: lon -40.075401, lat -71.137299, elev 2,569 ft / 783 m msl
Status: medium_airport

Weather (top)

Current conditions (rec'd 2014/04/13 12:25Z):

SAZY 131225Z 00000KT 9999 SCT004 BKN100 01/M02 Q1023

Airport forecast for San Carlos De Bariloche Airport 65nm (120km) S (rec'd 2014/04/23 00:00Z):

TAF SAZS 222300Z 2300/2324 VRB03KT CAVOK TX15/2318Z TN05/2310Z PROB30 2308/2314 3000 BR 
      BECMG 2314/2316 05005KT 9999 SCT020 BKN080

Frequencies (top)

Verify before use: may be inaccurate or out of date.

GND: 121.7 MHz (GND)
TWR: 119.6 MHz (CHAPELCO TWR)

Runways (top)

6/24: 8,202 x 148 ft (2,500 x 45 m) — paved — not lighted

Latest comments (top)

No comments yet for Aviador C. Campos Airport

More... (top)

See also NOTAMs and nearby airports and navaids, or visit the Aviador C. Campos Airport page at the main OurAirports website..